Nyk Orpheus — 7JDN — position and weather

sailwx.info

Track history (hours):
 
Tides and Currents Weather Stations Pressure Air Temp Water Temp Dewpoint Dewpoint Depression Visibility Wind Speed Wind Dir Waves Ship Positions

Nyk Orpheus

Last reported at 2017-Feb-16 23:32 UTC. Time now 2017-Feb-22 08:37 UTC.
Position N 35°02' E 139°41'.

Length 336 m; draft 11.1 m.

Type: Ship (hazmat cat A). MMSI: 432657000.

Date/timePositionNaut miles runAvg speedWind from/ knotsBaromVisibWave heightAir tempDewpointWater temp
2017-Feb-16 23:32N 35°02' E 139°41'1212.2
2017-Feb-16 22:34N 35°13' E 139°46'1211.5
2017-Feb-16 21:33N 35°24' E 139°43'1111.1
2017-Feb-16 20:33N 35°34' E 139°50'4 3.4
2017-Feb-16 19:32N 35°36' E 139°46'0 0.0
2017-Feb-16 18:26N 35°36' E 139°46'0 0.0
2017-Feb-16 17:32N 35°36' E 139°46'0 0.0
2017-Feb-16 16:20N 35°36' E 139°46'0 0.0
2017-Feb-16 15:32N 35°36' E 139°46'0 0.0
2017-Feb-16 14:32N 35°36' E 139°46'0 0.0
2017-Feb-16 13:32N 35°36' E 139°46'0 0.0
2017-Feb-16 12:32N 35°36' E 139°46'0 0.0
2017-Feb-16 11:29N 35°36' E 139°46'0 0.0
2017-Feb-16 10:29N 35°36' E 139°46'0 0.0
2017-Feb-16 09:32N 35°36' E 139°46'0 0.0
2017-Feb-16 08:29N 35°36' E 139°46'0 0.0
2017-Feb-16 07:29N 35°36' E 139°46'0 0.0
2017-Feb-16 06:32N 35°36' E 139°46'0 0.0
2017-Feb-16 05:32N 35°36' E 139°46'0 0.0
2017-Feb-16 04:32N 35°36' E 139°46'0 0.0
2017-Feb-16 03:32N 35°36' E 139°46'0 0.0
2017-Feb-16 02:32N 35°36' E 139°46'0 0.0
2017-Feb-16 01:29N 35°36' E 139°46'0 0.0
2017-Feb-16 00:32N 35°36' E 139°46'0 0.0
2017-Feb-15 23:32N 35°36' E 139°46'0 0.0
2017-Feb-15 22:32N 35°36' E 139°46'0 0.0
2017-Feb-15 21:32N 35°36' E 139°46'0 0.0
2017-Feb-15 20:32N 35°36' E 139°46'0 0.0
2017-Feb-15 19:32N 35°36' E 139°46'0 0.0
2017-Feb-15 18:26N 35°36' E 139°46'0 0.0
2017-Feb-15 17:32N 35°36' E 139°46'0 0.0
2017-Feb-15 16:29N 35°36' E 139°46'0 0.0
2017-Feb-15 15:32N 35°36' E 139°46'0 0.0
2017-Feb-15 14:32N 35°36' E 139°46'0 0.0
2017-Feb-15 13:29N 35°36' E 139°46'0 0.0
2017-Feb-15 12:32N 35°36' E 139°46'0 0.0
2017-Feb-15 11:32N 35°36' E 139°46'0 0.0
2017-Feb-15 10:32N 35°36' E 139°46'0 0.0
2017-Feb-15 09:32N 35°36' E 139°46'0 0.0
2017-Feb-15 08:32N 35°36' E 139°46'0 0.0
2017-Feb-15 07:32N 35°36' E 139°46'0 0.2
2017-Feb-15 06:33N 35°36' E 139°46'8 7.7
2017-Feb-15 05:33N 35°30' E 139°52'1312.9
2017-Feb-15 04:33N 35°19' E 139°44'1211.5
2017-Feb-15 03:33N 35°07' E 139°46'1010.2
2017-Feb-15 02:33N 34°58' E 139°41'  
2017-Feb-12 13:21N 34°10' E 134°57'1114.0
2017-Feb-12 12:33N 34°21' E 134°60'1818.3
2017-Feb-12 11:33N 34°35' E 135°14'7 6.5
2017-Feb-12 10:33N 34°41' E 135°17'0 0.0
2017-Feb-12 09:31N 34°41' E 135°17'0 0.0
2017-Feb-12 08:16N 34°41' E 135°17'0 0.0
2017-Feb-12 07:28N 34°41' E 135°17'0 0.0
2017-Feb-12 06:22N 34°41' E 135°17'0 0.0
2017-Feb-12 05:22N 34°41' E 135°17'0 0.0
2017-Feb-12 04:28N 34°41' E 135°17'0 0.0
2017-Feb-12 03:28N 34°41' E 135°17'0 0.0
2017-Feb-12 02:28N 34°41' E 135°17'0 0.0
2017-Feb-12 01:28N 34°41' E 135°17'0 0.0
2017-Feb-12 00:28N 34°41' E 135°17'0 0.0
2017-Feb-11 23:28N 34°41' E 135°17'0 0.0
2017-Feb-11 22:28N 34°41' E 135°17'0 0.0
2017-Feb-11 21:28N 34°41' E 135°17'0 0.0
2017-Feb-11 20:10N 34°41' E 135°17'0 0.0
2017-Feb-11 19:28N 34°41' E 135°17'0 0.0
2017-Feb-11 18:28N 34°41' E 135°17'0 0.0
2017-Feb-11 17:28N 34°41' E 135°17'0 0.0
2017-Feb-11 16:22N 34°41' E 135°17'0 0.0
2017-Feb-11 15:28N 34°41' E 135°17'0 0.0
2017-Feb-11 14:28N 34°41' E 135°17'0 0.0
2017-Feb-11 13:28N 34°41' E 135°17'0 0.0
2017-Feb-11 12:22N 34°41' E 135°17'0 0.0
2017-Feb-11 11:22N 34°41' E 135°17'0 0.0
2017-Feb-11 10:28N 34°41' E 135°17'0 0.0
2017-Feb-11 09:28N 34°41' E 135°17'0 0.0
2017-Feb-11 08:22N 34°41' E 135°17'2 2.2
2017-Feb-11 07:33N 34°39' E 135°19'1515.2
2017-Feb-11 06:33N 34°27' E 135°08'1515.4
2017-Feb-11 05:33N 34°13' E 135°00'1110.5
2017-Feb-11 04:33N 34°02' E 134°60'  
2017-Feb-07 09:16N 22°20' E 114°07'  
Track history (hours):
 
Tides and Currents Weather Stations Pressure Air Temp Water Temp Dewpoint Dewpoint Depression Visibility Wind Speed Wind Dir Waves Ship Positions

Nyk Orpheus

Last reported at 2017-Feb-16 23:32 UTC. Time now 2017-Feb-22 08:37 UTC.
Position N 35°02' E 139°41'.

Length 336 m; draft 11.1 m.

Type: Ship (hazmat cat A). MMSI: 432657000.

Date/timePositionNaut miles runAvg speedWind from/ knotsBaromVisibWave heightAir tempDewpointWater temp
2017-Feb-16 23:32N 35°02' E 139°41'1212.2
2017-Feb-16 22:34N 35°13' E 139°46'1211.5
2017-Feb-16 21:33N 35°24' E 139°43'1111.1
2017-Feb-16 20:33N 35°34' E 139°50'4 3.4
2017-Feb-16 19:32N 35°36' E 139°46'0 0.0
2017-Feb-16 18:26N 35°36' E 139°46'0 0.0
2017-Feb-16 17:32N 35°36' E 139°46'0 0.0
2017-Feb-16 16:20N 35°36' E 139°46'0 0.0
2017-Feb-16 15:32N 35°36' E 139°46'0 0.0
2017-Feb-16 14:32N 35°36' E 139°46'0 0.0
2017-Feb-16 13:32N 35°36' E 139°46'0 0.0
2017-Feb-16 12:32N 35°36' E 139°46'0 0.0
2017-Feb-16 11:29N 35°36' E 139°46'0 0.0
2017-Feb-16 10:29N 35°36' E 139°46'0 0.0
2017-Feb-16 09:32N 35°36' E 139°46'0 0.0
2017-Feb-16 08:29N 35°36' E 139°46'0 0.0
2017-Feb-16 07:29N 35°36' E 139°46'0 0.0
2017-Feb-16 06:32N 35°36' E 139°46'0 0.0
2017-Feb-16 05:32N 35°36' E 139°46'0 0.0
2017-Feb-16 04:32N 35°36' E 139°46'0 0.0
2017-Feb-16 03:32N 35°36' E 139°46'0 0.0
2017-Feb-16 02:32N 35°36' E 139°46'0 0.0
2017-Feb-16 01:29N 35°36' E 139°46'0 0.0
2017-Feb-16 00:32N 35°36' E 139°46'0 0.0
2017-Feb-15 23:32N 35°36' E 139°46'0 0.0
2017-Feb-15 22:32N 35°36' E 139°46'0 0.0
2017-Feb-15 21:32N 35°36' E 139°46'0 0.0
2017-Feb-15 20:32N 35°36' E 139°46'0 0.0
2017-Feb-15 19:32N 35°36' E 139°46'0 0.0
2017-Feb-15 18:26N 35°36' E 139°46'0 0.0
2017-Feb-15 17:32N 35°36' E 139°46'0 0.0
2017-Feb-15 16:29N 35°36' E 139°46'0 0.0
2017-Feb-15 15:32N 35°36' E 139°46'0 0.0
2017-Feb-15 14:32N 35°36' E 139°46'0 0.0
2017-Feb-15 13:29N 35°36' E 139°46'0 0.0
2017-Feb-15 12:32N 35°36' E 139°46'0 0.0
2017-Feb-15 11:32N 35°36' E 139°46'0 0.0
2017-Feb-15 10:32N 35°36' E 139°46'0 0.0
2017-Feb-15 09:32N 35°36' E 139°46'0 0.0
2017-Feb-15 08:32N 35°36' E 139°46'0 0.0
2017-Feb-15 07:32N 35°36' E 139°46'0 0.2
2017-Feb-15 06:33N 35°36' E 139°46'8 7.7
2017-Feb-15 05:33N 35°30' E 139°52'1312.9
2017-Feb-15 04:33N 35°19' E 139°44'1211.5
2017-Feb-15 03:33N 35°07' E 139°46'1010.2
2017-Feb-15 02:33N 34°58' E 139°41'  
2017-Feb-12 13:21N 34°10' E 134°57'1114.0
2017-Feb-12 12:33N 34°21' E 134°60'1818.3
2017-Feb-12 11:33N 34°35' E 135°14'7 6.5
2017-Feb-12 10:33N 34°41' E 135°17'0 0.0
2017-Feb-12 09:31N 34°41' E 135°17'0 0.0
2017-Feb-12 08:16N 34°41' E 135°17'0 0.0
2017-Feb-12 07:28N 34°41' E 135°17'0 0.0
2017-Feb-12 06:22N 34°41' E 135°17'0 0.0
2017-Feb-12 05:22N 34°41' E 135°17'0 0.0
2017-Feb-12 04:28N 34°41' E 135°17'0 0.0
2017-Feb-12 03:28N 34°41' E 135°17'0 0.0
2017-Feb-12 02:28N 34°41' E 135°17'0 0.0
2017-Feb-12 01:28N 34°41' E 135°17'0 0.0
2017-Feb-12 00:28N 34°41' E 135°17'0 0.0
2017-Feb-11 23:28N 34°41' E 135°17'0 0.0
2017-Feb-11 22:28N 34°41' E 135°17'0 0.0
2017-Feb-11 21:28N 34°41' E 135°17'0 0.0
2017-Feb-11 20:10N 34°41' E 135°17'0 0.0
2017-Feb-11 19:28N 34°41' E 135°17'0 0.0
2017-Feb-11 18:28N 34°41' E 135°17'0 0.0
2017-Feb-11 17:28N 34°41' E 135°17'0 0.0
2017-Feb-11 16:22N 34°41' E 135°17'0 0.0
2017-Feb-11 15:28N 34°41' E 135°17'0 0.0
2017-Feb-11 14:28N 34°41' E 135°17'0 0.0
2017-Feb-11 13:28N 34°41' E 135°17'0 0.0
2017-Feb-11 12:22N 34°41' E 135°17'0 0.0
2017-Feb-11 11:22N 34°41' E 135°17'0 0.0
2017-Feb-11 10:28N 34°41' E 135°17'0 0.0
2017-Feb-11 09:28N 34°41' E 135°17'0 0.0
2017-Feb-11 08:22N 34°41' E 135°17'2 2.2
2017-Feb-11 07:33N 34°39' E 135°19'1515.2
2017-Feb-11 06:33N 34°27' E 135°08'1515.4
2017-Feb-11 05:33N 34°13' E 135°00'1110.5
2017-Feb-11 04:33N 34°02' E 134°60'  
2017-Feb-07 09:16N 22°20' E 114°07'  

Dump ship's entire track history